createdAt,value
2023-01-22T00:01:55.429Z,20.39
2023-01-22T00:04:22.526Z,20.39
2023-01-22T00:06:49.449Z,20.40
2023-01-22T00:09:16.616Z,20.41
2023-01-22T00:11:43.483Z,20.42
2023-01-22T00:14:10.517Z,20.43
2023-01-22T00:16:37.580Z,20.40
2023-01-22T00:19:05.014Z,20.41
2023-01-22T00:21:31.998Z,20.41
2023-01-22T00:23:59.090Z,20.42
2023-01-22T00:26:26.135Z,20.41
2023-01-22T00:28:53.217Z,20.38
2023-01-22T00:31:20.787Z,20.37
2023-01-22T00:33:48.047Z,20.37
2023-01-22T00:36:16.336Z,20.34
2023-01-22T00:38:43.686Z,20.31
2023-01-22T00:41:10.811Z,20.29
2023-01-22T00:43:39.517Z,20.25
2023-01-22T00:46:08.267Z,20.24
2023-01-22T00:48:35.484Z,20.19
2023-01-22T00:51:02.601Z,20.17
2023-01-22T00:53:29.872Z,20.16
2023-01-22T00:55:58.784Z,20.18
2023-01-22T00:58:26.331Z,20.15
2023-01-22T01:00:53.677Z,20.18
2023-01-22T01:03:24.338Z,20.19
2023-01-22T01:05:51.466Z,20.18
2023-01-22T01:08:18.628Z,20.16
2023-01-22T01:10:45.549Z,20.14
2023-01-22T01:13:12.746Z,20.13
2023-01-22T01:15:40.191Z,20.11
2023-01-22T01:18:09.441Z,20.07
2023-01-22T01:20:36.346Z,20.05
2023-01-22T01:23:03.375Z,20.02
2023-01-22T01:25:30.347Z,19.99
2023-01-22T01:27:57.809Z,19.95
2023-01-22T01:30:24.837Z,19.93
2023-01-22T01:32:52.267Z,19.88
2023-01-22T01:35:20.002Z,19.86
2023-01-22T01:37:47.123Z,19.82
2023-01-22T01:40:14.234Z,19.79
2023-01-22T01:42:42.711Z,19.75
2023-01-22T01:45:12.724Z,19.72
2023-01-22T01:47:40.193Z,19.69
2023-01-22T01:50:08.324Z,19.66
2023-01-22T01:52:35.660Z,19.64
2023-01-22T01:55:02.660Z,19.59
2023-01-22T01:57:32.852Z,19.56
2023-01-22T02:00:01.653Z,19.51
2023-01-22T02:02:28.547Z,19.48
2023-01-22T02:04:55.536Z,19.44
2023-01-22T02:07:22.711Z,19.42
2023-01-22T02:09:49.597Z,19.39
2023-01-22T02:12:16.555Z,19.35
2023-01-22T02:14:44.829Z,19.30
2023-01-22T02:17:12.078Z,19.27
2023-01-22T02:19:40.051Z,19.23
2023-01-22T02:22:10.169Z,19.19
2023-01-22T02:24:37.494Z,19.15
2023-01-22T02:27:04.534Z,19.12
2023-01-22T02:29:31.537Z,19.10
2023-01-22T02:31:58.471Z,19.06
2023-01-22T02:34:25.355Z,19.03
2023-01-22T02:36:52.356Z,19.00
2023-01-22T02:39:19.298Z,18.96
2023-01-22T02:41:46.573Z,18.92
2023-01-22T02:44:13.622Z,18.88
2023-01-22T02:46:40.577Z,18.83
2023-01-22T02:49:07.520Z,18.82
2023-01-22T02:51:34.569Z,18.79
2023-01-22T02:54:01.417Z,18.74
2023-01-22T02:56:28.348Z,18.68
2023-01-22T02:58:55.352Z,18.67
2023-01-22T03:01:23.735Z,18.67
2023-01-22T03:03:51.834Z,18.61
2023-01-22T03:06:22.213Z,18.61
2023-01-22T03:08:50.133Z,18.57
2023-01-22T03:11:17.013Z,18.56
2023-01-22T03:13:47.007Z,18.56
2023-01-22T03:16:17.123Z,18.52
2023-01-22T03:18:47.059Z,18.49
2023-01-22T03:21:16.005Z,18.46
2023-01-22T03:23:43.709Z,18.45
2023-01-22T03:26:10.696Z,18.43
2023-01-22T03:28:37.975Z,18.41
2023-01-22T03:31:05.079Z,18.38
2023-01-22T03:33:32.592Z,18.38
2023-01-22T03:36:00.488Z,18.34
2023-01-22T03:38:27.403Z,18.33
2023-01-22T03:40:54.438Z,18.32
2023-01-22T03:43:21.345Z,18.28
2023-01-22T03:45:48.265Z,18.26
2023-01-22T03:48:15.131Z,18.21
2023-01-22T03:50:42.158Z,18.20
2023-01-22T03:53:09.057Z,18.17
2023-01-22T03:55:35.948Z,18.15
2023-01-22T03:58:02.771Z,18.13
2023-01-22T04:00:29.823Z,18.12
2023-01-22T04:02:56.726Z,18.08
2023-01-22T04:05:23.639Z,18.05
2023-01-22T04:07:51.112Z,18.03
2023-01-22T04:10:18.364Z,18.03
2023-01-22T04:12:45.407Z,18.00
2023-01-22T04:15:12.705Z,17.96
2023-01-22T04:17:39.654Z,17.94
2023-01-22T04:20:06.963Z,17.92
2023-01-22T04:22:33.860Z,17.93
2023-01-22T04:25:00.988Z,17.93
2023-01-22T04:27:27.941Z,17.90
2023-01-22T04:29:54.826Z,17.90
2023-01-22T04:32:22.238Z,17.85
2023-01-22T04:34:49.055Z,17.83
2023-01-22T04:37:16.051Z,17.83
2023-01-22T04:39:43.007Z,17.80
2023-01-22T04:42:11.032Z,17.79
2023-01-22T04:44:37.947Z,17.78
2023-01-22T04:47:04.807Z,17.76
2023-01-22T04:49:31.721Z,17.75
2023-01-22T04:51:58.786Z,17.74
2023-01-22T04:54:25.650Z,17.70
2023-01-22T04:56:53.140Z,17.69
2023-01-22T04:59:20.187Z,17.66
2023-01-22T05:01:47.209Z,17.67
2023-01-22T05:04:14.389Z,17.66
2023-01-22T05:06:41.436Z,17.63
2023-01-22T05:09:08.840Z,17.62
2023-01-22T05:11:35.648Z,17.59
2023-01-22T05:14:02.630Z,17.56
2023-01-22T05:16:29.534Z,17.54
2023-01-22T05:18:56.405Z,17.50
2023-01-22T05:21:23.367Z,17.52
2023-01-22T05:23:50.275Z,17.49
2023-01-22T05:26:17.926Z,17.46
2023-01-22T05:28:45.059Z,17.45
2023-01-22T05:31:12.021Z,17.45
2023-01-22T05:33:41.206Z,17.41
2023-01-22T05:36:09.737Z,17.40
2023-01-22T05:38:37.080Z,17.37
2023-01-22T05:41:03.998Z,17.37
2023-01-22T05:43:30.938Z,17.35
2023-01-22T05:46:00.896Z,17.32
2023-01-22T05:48:27.866Z,17.32
2023-01-22T05:50:54.834Z,17.30
2023-01-22T05:53:21.797Z,17.28
2023-01-22T05:55:48.794Z,17.25
2023-01-22T05:58:15.650Z,17.22
2023-01-22T06:00:42.829Z,17.23
2023-01-22T06:03:09.726Z,17.19
2023-01-22T06:05:36.833Z,17.18
2023-01-22T06:08:03.757Z,17.17
2023-01-22T06:10:30.780Z,17.17
2023-01-22T06:12:57.716Z,17.15
2023-01-22T06:15:24.582Z,17.13
2023-01-22T06:17:51.591Z,17.10
2023-01-22T06:20:18.801Z,17.10
2023-01-22T06:22:45.806Z,17.04
2023-01-22T06:25:12.920Z,17.03
2023-01-22T06:27:39.821Z,17.01
2023-01-22T06:30:07.166Z,16.99
2023-01-22T06:32:34.112Z,16.99
2023-01-22T06:35:01.018Z,16.99
2023-01-22T06:37:27.968Z,16.94
2023-01-22T06:39:54.887Z,16.97
2023-01-22T06:42:21.724Z,16.98
2023-01-22T06:44:50.879Z,16.94
2023-01-22T06:47:17.769Z,16.96
2023-01-22T06:49:45.325Z,16.93
2023-01-22T06:52:12.259Z,16.95
2023-01-22T06:54:39.401Z,16.98
2023-01-22T06:57:06.290Z,17.00
2023-01-22T06:59:53.023Z,17.04
2023-01-22T07:02:20.213Z,17.09
2023-01-22T07:04:47.407Z,17.12
2023-01-22T07:07:14.879Z,17.16
2023-01-22T07:09:41.808Z,17.22
2023-01-22T07:12:08.759Z,17.26
2023-01-22T07:14:37.430Z,17.31
2023-01-22T07:19:45.419Z,17.44
2023-01-22T07:24:52.766Z,17.56
2023-01-22T07:27:19.594Z,17.60
2023-01-22T07:29:48.009Z,17.66
2023-01-22T07:32:14.965Z,17.71
2023-01-22T07:34:41.902Z,17.77
2023-01-22T07:37:08.821Z,17.83
2023-01-22T07:39:35.880Z,17.88
2023-01-22T07:42:02.869Z,17.97
2023-01-22T07:44:29.732Z,18.01
2023-01-22T07:46:56.699Z,18.07
2023-01-22T07:49:23.590Z,18.12
2023-01-22T07:51:50.627Z,18.16
2023-01-22T07:54:18.613Z,18.20
2023-01-22T07:56:46.629Z,18.27
2023-01-22T07:59:13.465Z,18.31
2023-01-22T08:01:40.607Z,18.37
2023-01-22T08:04:07.486Z,18.41
2023-01-22T08:06:34.410Z,18.46
2023-01-22T08:09:01.357Z,18.52
2023-01-22T08:11:28.855Z,18.57
2023-01-22T08:13:55.809Z,18.62
2023-01-22T08:16:22.718Z,18.67
2023-01-22T08:18:49.589Z,18.72
2023-01-22T08:21:17.006Z,18.77
2023-01-22T08:23:47.505Z,18.83
2023-01-22T08:26:15.792Z,18.88
2023-01-22T08:28:42.634Z,18.91
2023-01-22T08:31:19.287Z,18.96
2023-01-22T08:33:53.515Z,19.01
2023-01-22T08:36:20.444Z,19.06
2023-01-22T08:38:48.261Z,19.10
2023-01-22T08:41:16.269Z,19.15
2023-01-22T08:43:43.205Z,19.18
2023-01-22T08:46:10.098Z,19.23
2023-01-22T08:48:37.045Z,19.27
2023-01-22T08:51:04.431Z,19.32
2023-01-22T08:53:31.673Z,19.34
2023-01-22T08:55:58.757Z,19.37
2023-01-22T08:58:28.329Z,19.41
2023-01-22T09:00:55.789Z,19.44
2023-01-22T09:03:23.181Z,19.45
2023-01-22T09:05:51.349Z,19.48
2023-01-22T09:08:18.239Z,19.49
2023-01-22T09:10:45.069Z,19.52
2023-01-22T09:13:11.972Z,19.52
2023-01-22T09:15:40.510Z,19.54
2023-01-22T09:18:07.340Z,19.52
2023-01-22T09:20:34.228Z,19.54
2023-01-22T09:23:01.111Z,19.52
2023-01-22T09:25:28.574Z,19.50
2023-01-22T09:27:59.415Z,19.47
2023-01-22T09:30:27.174Z,19.44
2023-01-22T09:32:54.079Z,19.42
2023-01-22T09:35:21.031Z,19.39
2023-01-22T09:37:47.938Z,19.38
2023-01-22T09:40:21.884Z,19.35
2023-01-22T09:42:49.990Z,19.31
2023-01-22T09:45:25.946Z,19.28
2023-01-22T09:47:54.736Z,19.29
2023-01-22T09:50:24.915Z,19.31
2023-01-22T09:52:53.236Z,19.32
2023-01-22T09:55:22.159Z,19.32
2023-01-22T09:57:50.351Z,19.33
2023-01-22T10:00:20.654Z,19.34
2023-01-22T10:02:51.668Z,19.29
2023-01-22T10:05:20.108Z,19.30
2023-01-22T10:07:51.733Z,19.28
2023-01-22T10:10:21.412Z,19.28
2023-01-22T10:12:51.570Z,19.25
2023-01-22T10:15:21.285Z,19.19
2023-01-22T10:17:48.410Z,19.13
2023-01-22T10:20:17.152Z,19.09
2023-01-22T10:22:44.557Z,19.06
2023-01-22T10:25:13.824Z,19.03
2023-01-22T10:27:41.387Z,19.03
2023-01-22T10:30:19.753Z,18.99
2023-01-22T10:32:58.111Z,19.00
2023-01-22T10:35:25.148Z,19.00
2023-01-22T10:37:53.693Z,19.01
2023-01-22T10:40:23.506Z,19.02
2023-01-22T10:42:53.665Z,19.05
2023-01-22T10:45:20.584Z,19.09
2023-01-22T10:47:47.757Z,19.09
2023-01-22T10:50:15.814Z,19.13
2023-01-22T10:52:43.131Z,19.13
2023-01-22T10:55:13.546Z,19.17
2023-01-22T10:57:40.828Z,19.19
2023-01-22T11:00:21.946Z,19.22
2023-01-22T11:02:50.592Z,19.24
2023-01-22T11:05:19.550Z,19.27
2023-01-22T11:07:48.109Z,19.30
2023-01-22T11:10:18.436Z,19.31
2023-01-22T11:12:48.588Z,18.98
2023-01-22T11:15:19.065Z,19.14
2023-01-22T11:17:49.819Z,19.28
2023-01-22T11:20:22.438Z,19.36
2023-01-22T11:22:59.721Z,19.42
2023-01-22T11:25:27.748Z,19.46
2023-01-22T11:27:56.012Z,19.51
2023-01-22T11:30:26.293Z,19.56
2023-01-22T11:32:59.669Z,19.60
2023-01-22T11:35:30.184Z,19.65
2023-01-22T11:38:00.116Z,19.68
2023-01-22T11:40:29.964Z,19.73
2023-01-22T11:42:58.293Z,19.75
2023-01-22T11:45:28.486Z,19.82
2023-01-22T11:47:58.411Z,19.86
2023-01-22T11:50:26.103Z,19.92
2023-01-22T11:53:03.014Z,19.96
2023-01-22T11:55:39.968Z,20.01
2023-01-22T11:58:09.878Z,20.05
2023-01-22T12:00:37.130Z,20.08
2023-01-22T12:03:07.848Z,20.13
2023-01-22T12:05:35.099Z,20.17
2023-01-22T12:08:03.773Z,20.18
2023-01-22T12:10:33.689Z,20.22
2023-01-22T12:13:03.568Z,20.26
2023-01-22T12:15:30.853Z,20.29
2023-01-22T12:18:00.863Z,20.32
2023-01-22T12:20:28.138Z,20.37
2023-01-22T12:22:58.156Z,20.40
2023-01-22T12:25:26.363Z,20.44
2023-01-22T12:27:56.281Z,20.48
2023-01-22T12:30:27.713Z,20.50
2023-01-22T12:32:59.008Z,20.53
2023-01-22T12:35:27.191Z,20.56
2023-01-22T12:37:57.187Z,20.59
2023-01-22T12:40:27.128Z,20.63
2023-01-22T12:42:55.528Z,20.67
2023-01-22T12:45:27.259Z,20.68
2023-01-22T12:47:57.161Z,20.72
2023-01-22T12:50:25.947Z,20.75
2023-01-22T12:52:56.009Z,20.77
2023-01-22T12:55:28.763Z,20.82
2023-01-22T12:57:56.176Z,20.84
2023-01-22T13:00:23.502Z,20.88
2023-01-22T13:02:50.885Z,20.89
2023-01-22T13:05:19.980Z,20.92
2023-01-22T13:07:47.313Z,20.95
2023-01-22T13:10:17.509Z,20.99
2023-01-22T13:12:48.233Z,21.01
2023-01-22T13:15:18.308Z,21.05
2023-01-22T13:17:55.754Z,21.08
2023-01-22T13:20:30.576Z,21.11
2023-01-22T13:22:58.630Z,21.12
2023-01-22T13:25:27.407Z,21.16
2023-01-22T13:27:55.006Z,21.18
2023-01-22T13:30:27.311Z,21.21
2023-01-22T13:32:57.353Z,21.24
2023-01-22T13:35:24.342Z,21.26
2023-01-22T13:37:51.710Z,21.30
2023-01-22T13:40:21.744Z,21.30
2023-01-22T13:42:49.002Z,21.37
2023-01-22T13:45:18.943Z,21.37
2023-01-22T13:47:45.963Z,21.40
2023-01-22T13:50:16.054Z,21.43
2023-01-22T13:52:43.222Z,21.46
2023-01-22T13:55:13.259Z,21.46
2023-01-22T13:57:45.134Z,21.43
2023-01-22T14:00:15.211Z,21.45
2023-01-22T14:02:44.727Z,21.47
2023-01-22T14:05:15.475Z,21.47
2023-01-22T14:07:42.711Z,21.47
2023-01-22T14:10:13.174Z,21.48
2023-01-22T14:12:40.589Z,21.51
2023-01-22T14:15:11.165Z,21.52
2023-01-22T14:17:38.625Z,21.52
2023-01-22T14:20:05.859Z,21.52
2023-01-22T14:22:32.853Z,21.51
2023-01-22T14:24:59.791Z,21.51
2023-01-22T14:27:28.242Z,21.51
2023-01-22T14:29:55.963Z,21.47
2023-01-22T14:32:24.243Z,21.47
2023-01-22T14:34:51.381Z,21.45
2023-01-22T14:37:18.487Z,21.43
2023-01-22T14:39:45.436Z,21.41
2023-01-22T14:42:12.554Z,21.40
2023-01-22T14:44:39.465Z,21.36
2023-01-22T14:47:06.540Z,21.31
2023-01-22T14:49:33.717Z,21.32
2023-01-22T14:52:00.857Z,21.30
2023-01-22T14:54:28.468Z,21.25
2023-01-22T14:56:56.415Z,21.21
2023-01-22T14:59:23.414Z,21.21
2023-01-22T15:01:50.469Z,21.16
2023-01-22T15:04:18.129Z,21.10
2023-01-22T15:06:45.094Z,21.08
2023-01-22T15:09:12.559Z,21.02
2023-01-22T15:11:39.619Z,20.97
2023-01-22T15:14:08.005Z,20.93
2023-01-22T15:16:35.026Z,20.89
2023-01-22T15:19:03.687Z,20.86
2023-01-22T15:21:30.730Z,20.80
2023-01-22T15:23:57.795Z,20.75
2023-01-22T15:26:27.954Z,20.72
2023-01-22T15:28:55.837Z,20.67
2023-01-22T15:31:23.094Z,20.64
2023-01-22T15:33:50.925Z,20.58
2023-01-22T15:36:17.948Z,20.54
2023-01-22T15:38:44.977Z,20.51
2023-01-22T15:41:15.004Z,20.47
2023-01-22T15:43:42.142Z,20.44
2023-01-22T15:46:09.290Z,20.40
2023-01-22T15:48:40.283Z,20.36
2023-01-22T15:51:18.428Z,20.31
2023-01-22T15:54:00.594Z,20.29
2023-01-22T15:56:33.830Z,20.26
2023-01-22T15:59:10.919Z,20.21
2023-01-22T16:01:45.476Z,20.21
2023-01-22T16:04:14.331Z,20.13
2023-01-22T16:06:42.265Z,20.13
2023-01-22T16:09:10.580Z,20.09
2023-01-22T16:11:41.233Z,20.05
2023-01-22T16:14:10.542Z,20.01
2023-01-22T16:16:58.720Z,19.97
2023-01-22T16:19:38.249Z,19.99
2023-01-22T16:24:42.171Z,19.85
2023-01-22T16:30:31.952Z,19.88
2023-01-22T16:33:04.671Z,19.82
2023-01-22T16:35:32.577Z,19.82
2023-01-22T16:37:59.349Z,19.81
2023-01-22T16:40:26.352Z,19.82
2023-01-22T16:43:00.145Z,19.84
2023-01-22T16:45:28.768Z,19.90
2023-01-22T16:47:56.660Z,19.95
2023-01-22T16:50:23.478Z,19.99
2023-01-22T16:52:50.811Z,20.01
2023-01-22T16:55:30.454Z,20.05
2023-01-22T16:57:58.843Z,20.09
2023-01-22T17:00:25.595Z,20.12
2023-01-22T17:02:52.408Z,20.15
2023-01-22T17:05:45.356Z,20.18
2023-01-22T17:08:12.059Z,20.21
2023-01-22T17:10:38.759Z,20.24
2023-01-22T17:13:06.805Z,20.27
2023-01-22T17:15:33.749Z,20.31
2023-01-22T17:18:00.739Z,20.32
2023-01-22T17:20:27.493Z,20.35
2023-01-22T17:22:55.814Z,20.38
2023-01-22T17:25:32.809Z,20.42
2023-01-22T17:28:03.279Z,20.45
2023-01-22T17:30:30.860Z,20.48
2023-01-22T17:32:57.594Z,20.51
2023-01-22T17:35:27.684Z,20.54
2023-01-22T17:37:54.450Z,20.58
2023-01-22T17:40:21.236Z,20.60
2023-01-22T17:42:48.429Z,20.65
2023-01-22T17:45:27.885Z,20.64
2023-01-22T17:47:54.626Z,20.69
2023-01-22T17:50:21.397Z,20.70
2023-01-22T17:52:48.178Z,20.72
2023-01-22T17:55:15.043Z,20.72
2023-01-22T17:57:42.133Z,20.72
2023-01-22T18:00:10.340Z,20.73
2023-01-22T18:02:37.081Z,20.72
2023-01-22T18:05:04.085Z,20.71
2023-01-22T18:07:30.782Z,20.72
2023-01-22T18:09:57.618Z,20.71
2023-01-22T18:12:25.149Z,20.70
2023-01-22T18:14:51.824Z,20.68
2023-01-22T18:17:18.538Z,20.68
2023-01-22T18:19:45.339Z,20.63
2023-01-22T18:22:11.996Z,20.63
2023-01-22T18:24:38.820Z,20.59
2023-01-22T18:27:07.286Z,20.58
2023-01-22T18:29:33.989Z,20.57
2023-01-22T18:32:00.741Z,20.54
2023-01-22T18:34:27.492Z,20.51
2023-01-22T18:36:55.187Z,20.48
2023-01-22T18:39:22.634Z,20.45
2023-01-22T18:41:49.804Z,20.42
2023-01-22T18:44:17.548Z,20.38
2023-01-22T18:46:48.331Z,20.33
2023-01-22T18:49:17.462Z,20.31
2023-01-22T18:51:45.423Z,20.27
2023-01-22T18:54:12.213Z,20.25
2023-01-22T18:56:39.532Z,20.21
2023-01-22T18:59:06.327Z,20.19
2023-01-22T19:01:34.345Z,20.16
2023-01-22T19:04:02.759Z,20.12
2023-01-22T19:06:31.623Z,20.10
2023-01-22T19:09:02.901Z,20.08
2023-01-22T19:11:30.275Z,20.02
2023-01-22T19:13:57.786Z,20.04
2023-01-22T19:16:25.089Z,19.98
2023-01-22T19:18:55.772Z,19.94
2023-01-22T19:21:23.425Z,19.91
2023-01-22T19:23:51.551Z,19.86
2023-01-22T19:26:23.138Z,19.84
2023-01-22T19:28:52.106Z,19.82
2023-01-22T19:31:23.750Z,19.78
2023-01-22T19:33:51.475Z,19.74
2023-01-22T19:36:19.173Z,19.73
2023-01-22T19:38:46.410Z,19.73
2023-01-22T19:41:13.162Z,19.69
2023-01-22T19:43:39.947Z,19.64
2023-01-22T19:46:08.406Z,19.61
2023-01-22T19:48:35.507Z,19.58
2023-01-22T19:51:04.049Z,19.54
2023-01-22T19:53:30.956Z,19.47
2023-01-22T19:56:00.822Z,19.43
2023-01-22T19:58:28.591Z,19.40
2023-01-22T20:00:56.203Z,19.35
2023-01-22T20:03:23.761Z,19.34
2023-01-22T20:05:51.009Z,19.33
2023-01-22T20:08:17.788Z,19.27
2023-01-22T20:10:44.744Z,19.23
2023-01-22T20:13:11.947Z,19.15
2023-01-22T20:15:40.004Z,19.06
2023-01-22T20:18:07.204Z,19.07
2023-01-22T20:20:33.952Z,19.08
2023-01-22T20:23:00.629Z,19.09
2023-01-22T20:25:31.029Z,19.03
2023-01-22T20:27:58.663Z,19.02
2023-01-22T20:30:25.344Z,18.99
2023-01-22T20:32:52.095Z,18.97
2023-01-22T20:35:30.676Z,18.97
2023-01-22T20:37:57.439Z,18.92
2023-01-22T20:40:24.846Z,18.92
2023-01-22T20:42:52.525Z,18.90
2023-01-22T20:45:33.085Z,18.87
2023-01-22T20:47:59.845Z,18.83
2023-01-22T20:50:26.741Z,18.77
2023-01-22T20:52:54.058Z,18.80
2023-01-22T20:55:28.185Z,18.77
2023-01-22T20:57:54.889Z,18.74
2023-01-22T21:00:21.604Z,18.72
2023-01-22T21:02:49.558Z,18.70
2023-01-22T21:05:26.998Z,18.65
2023-01-22T21:07:53.822Z,18.60
2023-01-22T21:10:20.762Z,18.62
2023-01-22T21:12:47.584Z,18.56
2023-01-22T21:15:28.681Z,18.56
2023-01-22T21:17:59.401Z,18.55
2023-01-22T21:20:26.179Z,18.52
2023-01-22T21:22:54.899Z,18.49
2023-01-22T21:25:33.403Z,18.47
2023-01-22T21:28:07.714Z,18.44
2023-01-22T21:30:34.886Z,18.45
2023-01-22T21:33:01.670Z,18.42
2023-01-22T21:35:34.825Z,18.40
2023-01-22T21:38:01.487Z,18.36
2023-01-22T21:40:28.374Z,18.34
2023-01-22T21:43:13.855Z,18.31
2023-01-22T21:46:00.464Z,18.28
2023-01-22T21:48:29.052Z,18.27
2023-01-22T21:50:55.947Z,18.33
2023-01-22T21:53:22.784Z,18.33
2023-01-22T21:55:53.058Z,18.32
2023-01-22T21:58:20.157Z,18.40
2023-01-22T22:00:46.888Z,18.44
2023-01-22T22:03:13.717Z,18.47
2023-01-22T22:05:40.409Z,18.49
2023-01-22T22:08:07.387Z,18.51
2023-01-22T22:10:34.230Z,18.53
2023-01-22T22:13:00.931Z,18.58
2023-01-22T22:15:27.771Z,18.63
2023-01-22T22:17:54.421Z,18.69
2023-01-22T22:20:21.336Z,18.72
2023-01-22T22:22:48.380Z,18.77
2023-01-22T22:25:15.092Z,18.81
2023-01-22T22:27:42.222Z,18.86
2023-01-22T22:30:09.193Z,18.91
2023-01-22T22:32:35.921Z,18.93
2023-01-22T22:35:02.725Z,19.00
2023-01-22T22:37:29.374Z,19.03
2023-01-22T22:39:56.338Z,19.08
2023-01-22T22:42:22.976Z,19.13
2023-01-22T22:44:49.606Z,19.17
2023-01-22T22:47:16.232Z,19.24
2023-01-22T22:49:43.044Z,19.28
2023-01-22T22:52:11.049Z,19.35
2023-01-22T22:54:37.822Z,19.39
2023-01-22T22:57:04.846Z,19.44
2023-01-22T22:59:31.825Z,19.49
2023-01-22T23:01:58.967Z,19.52
2023-01-22T23:04:25.876Z,19.57
2023-01-22T23:06:52.605Z,19.60
2023-01-22T23:09:19.987Z,19.66
2023-01-22T23:11:47.023Z,19.70
2023-01-22T23:14:13.943Z,19.73
2023-01-22T23:16:44.612Z,19.78
2023-01-22T23:19:16.067Z,19.82
2023-01-22T23:21:42.925Z,19.88
2023-01-22T23:24:10.580Z,19.90
2023-01-22T23:26:37.692Z,19.94
2023-01-22T23:29:05.665Z,19.98
2023-01-22T23:31:33.562Z,20.03
2023-01-22T23:34:01.459Z,20.07
2023-01-22T23:36:28.278Z,20.10
2023-01-22T23:38:55.168Z,20.15
2023-01-22T23:41:21.909Z,20.19
2023-01-22T23:43:49.140Z,20.23
2023-01-22T23:46:20.342Z,20.25
2023-01-22T23:48:47.136Z,20.31
2023-01-22T23:51:15.080Z,20.34
2023-01-22T23:53:43.111Z,20.36
2023-01-22T23:56:10.766Z,20.39
2023-01-22T23:58:38.042Z,20.42
